createdAt,value
2022-12-23T00:00:12.410Z,2.70
2022-12-23T00:05:06.344Z,3.30
2022-12-23T00:09:58.168Z,3.00
2022-12-23T00:15:07.901Z,3.23
2022-12-23T00:19:59.500Z,3.10
2022-12-23T00:24:51.062Z,3.17
2022-12-23T00:29:42.584Z,3.03
2022-12-23T00:34:34.131Z,2.37
2022-12-23T00:39:44.365Z,2.80
2022-12-23T00:44:35.887Z,2.50
2022-12-23T00:49:42.410Z,2.37
2022-12-23T00:54:34.017Z,2.00
2022-12-23T00:59:27.010Z,2.10
2022-12-23T01:04:38.304Z,1.60
2022-12-23T01:09:30.213Z,1.20
2022-12-23T01:14:22.384Z,1.10
2022-12-23T01:19:14.033Z,1.10
2022-12-23T01:24:08.086Z,1.20
2022-12-23T01:29:00.056Z,1.03
2022-12-23T01:33:52.481Z,0.90
2022-12-23T01:38:44.558Z,1.10
2022-12-23T01:43:50.895Z,0.97
2022-12-23T01:48:51.137Z,1.10
2022-12-23T01:53:50.361Z,0.90
2022-12-23T01:58:55.111Z,1.30
2022-12-23T02:03:49.440Z,1.13
2022-12-23T02:08:59.762Z,0.90
2022-12-23T02:14:28.180Z,1.00
2022-12-23T02:19:47.888Z,1.20
2022-12-23T02:25:07.368Z,1.17
2022-12-23T02:30:26.981Z,1.10
2022-12-23T02:35:18.575Z,1.27
2022-12-23T02:40:10.998Z,1.50
2022-12-23T02:45:34.972Z,1.43
2022-12-23T02:50:31.770Z,1.40
2022-12-23T02:55:28.943Z,1.47
2022-12-23T03:00:21.440Z,1.80
2022-12-23T03:05:40.571Z,1.97
2022-12-23T03:11:10.397Z,2.27
2022-12-23T03:16:14.224Z,1.60
2022-12-23T03:21:15.831Z,1.80
2022-12-23T03:26:33.949Z,1.90
2022-12-23T03:31:29.598Z,2.00
2022-12-23T03:36:29.727Z,1.80
2022-12-23T03:41:46.203Z,1.37
2022-12-23T03:46:46.725Z,1.23
2022-12-23T03:51:51.060Z,1.33
2022-12-23T03:56:51.193Z,1.43
2022-12-23T04:01:51.797Z,1.53
2022-12-23T04:06:59.401Z,1.10
2022-12-23T04:11:51.768Z,1.10
2022-12-23T04:16:44.369Z,1.20
2022-12-23T04:21:35.925Z,1.20
2022-12-23T04:26:27.429Z,1.10
2022-12-23T04:31:21.047Z,1.43
2022-12-23T04:36:12.661Z,1.23
2022-12-23T04:41:04.360Z,1.20
2022-12-23T04:45:55.868Z,1.10
2022-12-23T04:50:47.354Z,1.40
2022-12-23T04:55:39.469Z,1.20
2022-12-23T05:00:37.129Z,1.50
2022-12-23T05:05:30.788Z,1.60
2022-12-23T05:10:22.269Z,1.50
2022-12-23T05:15:13.828Z,1.47
2022-12-23T05:20:05.825Z,1.30
2022-12-23T05:24:57.368Z,1.30
2022-12-23T05:29:48.911Z,1.37
2022-12-23T05:34:40.461Z,1.40
2022-12-23T05:39:32.031Z,1.40
2022-12-23T05:44:23.682Z,1.93
2022-12-23T05:49:15.375Z,1.20
2022-12-23T05:54:08.202Z,1.30
2022-12-23T05:58:59.707Z,1.47
2022-12-23T06:03:51.577Z,3.03
2022-12-23T06:08:43.235Z,1.60
2022-12-23T06:13:34.738Z,1.30
2022-12-23T06:18:26.298Z,1.30
2022-12-23T06:23:18.408Z,1.50
2022-12-23T06:28:10.049Z,1.17
2022-12-23T06:33:02.067Z,1.47
2022-12-23T06:37:53.621Z,1.63
2022-12-23T06:42:47.479Z,2.00
2022-12-23T06:47:39.144Z,1.43
2022-12-23T06:52:31.503Z,1.93
2022-12-23T06:57:23.023Z,1.90
2022-12-23T07:02:15.084Z,2.13
2022-12-23T07:07:06.853Z,1.80
2022-12-23T07:11:58.494Z,1.87
2022-12-23T07:16:51.428Z,1.90
2022-12-23T07:21:43.278Z,1.87
2022-12-23T07:26:34.787Z,2.03
2022-12-23T07:31:28.477Z,1.90
2022-12-23T07:36:20.129Z,2.10
2022-12-23T07:41:11.681Z,1.87
2022-12-23T07:46:08.287Z,1.80
2022-12-23T07:51:04.001Z,2.00
2022-12-23T07:55:56.765Z,2.03
2022-12-23T08:00:48.553Z,2.37
2022-12-23T08:05:40.119Z,1.63
2022-12-23T08:10:32.485Z,1.80
2022-12-23T08:15:24.781Z,2.13
2022-12-23T08:20:16.409Z,1.90
2022-12-23T08:25:08.359Z,1.97
2022-12-23T08:29:59.863Z,1.90
2022-12-23T08:34:51.450Z,1.70
2022-12-23T08:39:43.681Z,1.80
2022-12-23T08:44:35.361Z,1.73
2022-12-23T08:49:28.448Z,1.87
2022-12-23T08:54:20.551Z,2.10
2022-12-23T08:59:18.723Z,2.13
2022-12-23T09:04:11.000Z,1.60
2022-12-23T09:09:04.168Z,1.70
2022-12-23T09:13:57.861Z,1.53
2022-12-23T09:18:49.411Z,1.27
2022-12-23T09:23:41.660Z,0.90
2022-12-23T09:28:34.310Z,1.53
2022-12-23T09:33:26.007Z,1.37
2022-12-23T09:38:17.539Z,1.10
2022-12-23T09:43:36.144Z,1.03
2022-12-23T09:48:33.549Z,1.17
2022-12-23T09:53:35.872Z,0.93
2022-12-23T09:58:49.019Z,1.30
2022-12-23T10:03:54.514Z,2.10
2022-12-23T10:08:51.401Z,2.03
2022-12-23T10:13:53.429Z,1.93
2022-12-23T10:18:53.921Z,2.70
2022-12-23T10:23:51.216Z,2.50
2022-12-23T10:28:44.537Z,2.20
2022-12-23T10:33:50.569Z,2.90
2022-12-23T10:38:48.517Z,2.40
2022-12-23T10:44:03.242Z,2.73
2022-12-23T10:49:02.491Z,2.20
2022-12-23T10:54:13.039Z,2.30
2022-12-23T10:59:06.948Z,2.20
2022-12-23T11:04:26.029Z,2.80
2022-12-23T11:09:24.854Z,2.50
2022-12-23T11:14:40.670Z,2.67
2022-12-23T11:19:32.944Z,2.63
2022-12-23T11:24:28.591Z,2.37
2022-12-23T11:29:24.766Z,2.30
2022-12-23T11:34:38.782Z,2.20
2022-12-23T11:39:33.884Z,2.10
2022-12-23T11:44:32.305Z,2.40
2022-12-23T11:49:26.719Z,2.53
2022-12-23T11:54:20.539Z,2.63
2022-12-23T11:59:40.186Z,2.73
2022-12-23T12:04:35.606Z,2.60
2022-12-23T12:09:30.560Z,3.07
2022-12-23T12:14:41.695Z,2.53
2022-12-23T12:19:39.560Z,1.90
2022-12-23T12:24:44.083Z,2.40
2022-12-23T12:30:01.060Z,2.73
2022-12-23T12:35:06.418Z,2.47
2022-12-23T12:40:01.002Z,1.97
2022-12-23T12:45:02.284Z,1.73
2022-12-23T12:50:17.341Z,1.20
2022-12-23T12:55:17.499Z,1.50
2022-12-23T13:00:22.302Z,1.10
2022-12-23T13:05:33.947Z,1.33
2022-12-23T13:10:41.433Z,1.53
2022-12-23T13:15:44.846Z,1.97
2022-12-23T13:20:43.001Z,2.03
2022-12-23T13:26:00.528Z,2.00
2022-12-23T13:31:00.470Z,2.20
2022-12-23T13:35:59.780Z,1.83
2022-12-23T13:41:07.399Z,2.47
2022-12-23T13:46:06.028Z,2.17
2022-12-23T13:51:14.273Z,1.70
2022-12-23T13:56:22.379Z,1.57
2022-12-23T14:01:13.925Z,1.50
2022-12-23T14:06:23.423Z,1.80
2022-12-23T14:11:16.773Z,2.10
2022-12-23T14:16:17.921Z,1.80
2022-12-23T14:21:25.571Z,2.40
2022-12-23T14:26:46.162Z,2.73
2022-12-23T14:31:40.846Z,2.30
2022-12-23T14:36:33.732Z,2.77
2022-12-23T14:41:38.546Z,2.40
2022-12-23T14:46:36.207Z,1.87
2022-12-23T14:51:41.221Z,1.70
2022-12-23T14:56:39.468Z,1.93
2022-12-23T15:01:39.249Z,1.87
2022-12-23T15:06:33.579Z,1.90
2022-12-23T15:11:29.076Z,1.83
2022-12-23T15:16:35.460Z,2.13
2022-12-23T15:21:34.101Z,2.17
2022-12-23T15:26:30.297Z,2.47
2022-12-23T15:31:28.506Z,2.77
2022-12-23T15:36:42.992Z,2.40
2022-12-23T15:41:43.022Z,2.77
2022-12-23T15:46:40.167Z,3.13
2022-12-23T15:56:50.207Z,2.90
2022-12-23T16:01:42.041Z,1.90
2022-12-23T16:06:36.088Z,1.93
2022-12-23T16:11:57.984Z,1.23
2022-12-23T16:16:53.952Z,1.43
2022-12-23T16:21:46.378Z,1.47
2022-12-23T16:26:44.691Z,1.20
2022-12-23T16:31:37.428Z,1.07
2022-12-23T16:36:29.014Z,1.03
2022-12-23T16:41:21.544Z,0.90
2022-12-23T16:46:17.024Z,1.37
2022-12-23T16:51:14.706Z,1.37
2022-12-23T16:56:12.322Z,1.10
2022-12-23T17:01:04.919Z,1.60
2022-12-23T17:05:56.463Z,1.40
2022-12-23T17:10:48.119Z,1.47
2022-12-23T17:15:39.737Z,1.80
2022-12-23T17:20:32.081Z,2.63
2022-12-23T17:25:26.690Z,2.10
2022-12-23T17:30:21.770Z,1.77
2022-12-23T17:35:22.345Z,2.13
2022-12-23T17:40:14.972Z,2.47
2022-12-23T17:45:19.209Z,1.87
2022-12-23T17:50:11.227Z,2.13
2022-12-23T17:55:02.822Z,2.77
2022-12-23T17:59:55.012Z,2.57
2022-12-23T18:04:49.801Z,2.73
2022-12-23T18:09:41.376Z,2.73
2022-12-23T18:14:33.723Z,2.23
2022-12-23T18:19:25.640Z,2.73
2022-12-23T18:24:17.824Z,2.90
2022-12-23T18:29:09.513Z,2.83
2022-12-23T18:34:01.308Z,3.53
2022-12-23T18:38:53.629Z,3.13
2022-12-23T18:43:45.225Z,3.07
2022-12-23T18:48:39.757Z,3.63
2022-12-23T18:53:33.735Z,2.67
2022-12-23T18:58:25.499Z,4.00
2022-12-23T19:03:22.437Z,3.00
2022-12-23T19:08:14.119Z,2.90
2022-12-23T19:13:05.625Z,3.60
2022-12-23T19:17:57.361Z,2.97
2022-12-23T19:22:49.131Z,3.10
2022-12-23T19:27:42.138Z,3.43
2022-12-23T19:32:33.776Z,3.30
2022-12-23T19:37:25.391Z,3.17
2022-12-23T19:42:17.252Z,3.40
2022-12-23T19:47:08.868Z,3.67
2022-12-23T19:52:01.557Z,3.07
2022-12-23T19:56:53.263Z,3.17
2022-12-23T20:01:45.649Z,2.60
2022-12-23T20:06:38.363Z,2.67
2022-12-23T20:11:34.325Z,2.77
2022-12-23T20:16:26.797Z,3.80
2022-12-23T20:21:18.856Z,3.63
2022-12-23T20:26:12.389Z,3.20
2022-12-23T20:31:19.292Z,3.40
2022-12-23T20:36:13.511Z,2.47
2022-12-23T20:41:10.823Z,3.20
2022-12-23T20:46:06.904Z,2.50
2022-12-23T20:51:07.052Z,2.43
2022-12-23T20:56:09.576Z,3.20
2022-12-23T21:01:12.563Z,2.83
2022-12-23T21:06:05.353Z,3.07
2022-12-23T21:10:58.987Z,2.73
2022-12-23T21:15:50.837Z,2.17
2022-12-23T21:20:42.381Z,2.33
2022-12-23T21:25:34.146Z,3.20
2022-12-23T21:30:25.682Z,3.10
2022-12-23T21:35:17.327Z,2.87
2022-12-23T21:40:09.737Z,2.97
2022-12-23T21:45:01.464Z,3.40
2022-12-23T21:49:52.984Z,2.70
2022-12-23T21:54:44.578Z,3.00
2022-12-23T21:59:36.162Z,3.33
2022-12-23T22:04:27.792Z,2.73
2022-12-23T22:09:19.683Z,2.70
2022-12-23T22:14:14.011Z,3.30
2022-12-23T22:19:08.771Z,3.50
2022-12-23T22:24:01.387Z,2.90
2022-12-23T22:28:57.696Z,2.70
2022-12-23T22:33:49.297Z,3.07
2022-12-23T22:38:41.982Z,2.67
2022-12-23T22:43:33.723Z,2.67
2022-12-23T22:48:28.777Z,2.67
2022-12-23T22:53:24.847Z,2.67
2022-12-23T22:58:19.488Z,3.63
2022-12-23T23:03:11.038Z,3.50
2022-12-23T23:08:02.608Z,2.93
2022-12-23T23:12:54.120Z,3.57
2022-12-23T23:17:46.491Z,3.23
2022-12-23T23:22:38.129Z,3.30
2022-12-23T23:27:54.823Z,3.60
2022-12-23T23:32:46.435Z,3.90
2022-12-23T23:37:42.881Z,4.17
2022-12-23T23:42:34.434Z,3.50
2022-12-23T23:47:26.070Z,4.37
2022-12-23T23:52:17.814Z,3.37
2022-12-23T23:57:10.258Z,3.80
